Time;durP1;ratioP1;P1;durP2;ratioP2;P2;SDS_P1;SDS_P2;PMS_P1;PMS_P2;Temp;Humidity;BMP_temperature;BMP_pressure;BME280_temperature;BME280_humidity;BME280_pressure;Samples;Min_cycle;Max_cycle;Signal;HPM_P1;HPM_P2
2023/11/20 00:04:10;;;;;;;8.73;1.63;;;12.80;1.00;;;;;;5069904;28;20439;-77
2023/11/20 00:06:36;;;;;;;13.03;2.13;;;12.80;1.00;;;;;;5065008;28;20433;-73
2023/11/20 00:09:03;;;;;;;7.33;1.50;;;12.70;1.00;;;;;;5073509;28;20266;-73
2023/11/20 00:11:29;;;;;;;11.80;1.97;;;;;;;;;;5073621;28;20191;-72
2023/11/20 00:13:55;;;;;;;8.80;2.13;;;12.70;1.00;;;;;;5087020;28;20448;-73
2023/11/20 00:16:22;;;;;;;8.33;1.70;;;;;;;;;;5094040;28;20491;-72
2023/11/20 00:18:51;;;;;;;5.67;2.03;;;12.80;1.00;;;;;;5079819;28;20179;-73
2023/11/20 00:21:33;;;;;;;16.00;1.57;;;12.80;1.00;;;;;;5081712;28;20755;-77
2023/11/20 00:28:03;;;;;;;9.40;1.47;;;12.80;1.00;;;;;;5073151;28;20420;-77
2023/11/20 00:30:57;;;;;;;18.20;2.50;;;12.70;1.00;;;;;;5088949;28;20490;-77
2023/11/20 00:33:23;;;;;;;18.37;3.30;;;12.70;1.00;;;;;;5076179;28;20432;-77
2023/11/20 00:36:27;;;;;;;12.60;2.20;;;12.70;1.00;;;;;;5080477;28;20429;-77
2023/11/20 00:39:15;;;;;;;13.30;1.20;;;12.80;1.00;;;;;;5076868;28;20426;-77
2023/11/20 00:41:52;;;;;;;5.07;1.63;;;;;;;;;;5077910;28;20570;-77
2023/11/20 00:44:21;;;;;;;14.93;2.07;;;12.80;1.00;;;;;;5075672;28;20929;-77
2023/11/20 00:46:51;;;;;;;13.40;3.27;;;12.80;1.00;;;;;;5076284;28;20983;-77
2023/11/20 00:49:17;;;;;;;16.07;2.07;;;12.70;1.00;;;;;;5072120;28;20914;-77
2023/11/20 00:51:46;;;;;;;10.03;1.33;;;12.70;1.00;;;;;;5073092;28;20490;-77
2023/11/20 00:54:15;;;;;;;11.93;2.00;;;12.70;1.00;;;;;;5072938;28;20194;-77
2023/11/20 00:56:51;;;;;;;8.93;1.60;;;12.80;1.00;;;;;;5085370;28;20457;-77
2023/11/20 01:03:33;;;;;;;9.40;1.63;;;12.60;1.00;;;;;;5080873;28;20932;-77
2023/11/20 01:06:04;;;;;;;17.70;1.90;;;12.60;1.00;;;;;;5088859;28;20420;-73
2023/11/20 01:08:30;;;;;;;15.43;1.97;;;;;;;;;;5087295;28;20425;-73
2023/11/20 01:10:58;;;;;;;9.10;1.93;;;;;;;;;;5089114;28;20400;-73
2023/11/20 01:13:30;;;;;;;24.50;3.60;;;12.50;1.00;;;;;;5071759;28;20396;-73
2023/11/20 01:15:56;;;;;;;9.30;1.67;;;;;;;;;;5076175;28;20881;-73
2023/11/20 01:18:22;;;;;;;8.37;1.80;;;;;;;;;;5083209;28;20790;-73
2023/11/20 01:20:48;;;;;;;11.13;1.93;;;12.60;1.00;;;;;;5073417;28;20424;-72
2023/11/20 01:23:14;;;;;;;11.23;1.43;;;12.50;1.00;;;;;;5083057;28;20485;-73
2023/11/20 01:25:45;;;;;;;5.53;1.33;;;12.50;1.00;;;;;;5076244;28;20187;-73
2023/11/20 01:28:11;;;;;;;6.20;1.57;;;12.50;1.00;;;;;;5072713;28;20425;-73
2023/11/20 01:30:37;;;;;;;6.90;1.83;;;12.50;1.00;;;;;;5082543;28;20417;-73
2023/11/20 01:33:03;;;;;;;8.33;1.43;;;;;;;;;;5083315;28;20261;-73
2023/11/20 01:35:29;;;;;;;11.00;1.90;;;12.60;1.00;;;;;;5076115;28;20186;-73
2023/11/20 01:37:55;;;;;;;7.47;1.20;;;;;;;;;;5072735;28;20459;-72
2023/11/20 01:40:20;;;;;;;8.90;1.53;;;12.60;1.00;;;;;;5093421;28;20675;-72
2023/11/20 01:42:51;;;;;;;9.77;1.73;;;12.60;1.00;;;;;;5078226;28;20443;-72
2023/11/20 01:45:17;;;;;;;19.33;2.57;;;;;;;;;;5077040;28;20179;-72
2023/11/20 01:47:45;;;;;;;9.67;2.80;;;12.60;1.00;;;;;;5076461;28;20751;-73
2023/11/20 01:50:12;;;;;;;7.30;1.40;;;12.60;1.00;;;;;;5086424;28;20433;-74
2023/11/20 01:52:47;;;;;;;6.07;1.40;;;12.60;1.00;;;;;;5076917;28;20433;-73
2023/11/20 01:55:16;;;;;;;6.60;1.77;;;;;;;;;;5086878;28;20841;-72
2023/11/20 01:57:48;;;;;;;8.67;1.40;;;12.60;1.00;;;;;;5075740;28;20456;-72
2023/11/20 02:00:16;;;;;;;12.50;1.70;;;12.70;1.00;;;;;;5089606;28;20477;-73
2023/11/20 02:02:43;;;;;;;15.50;1.97;;;12.70;1.00;;;;;;5075842;28;20437;-72
2023/11/20 02:05:09;;;;;;;10.30;1.70;;;12.60;1.00;;;;;;5062498;28;20460;-73
2023/11/20 02:07:35;;;;;;;13.03;1.80;;;12.70;1.00;;;;;;5074748;28;20437;-72
2023/11/20 02:10:01;;;;;;;6.37;1.63;;;;;;;;;;5064105;28;20418;-72
2023/11/20 02:12:35;;;;;;;11.10;1.97;;;12.70;1.00;;;;;;5075313;28;20421;-72
2023/11/20 02:15:02;;;;;;;10.00;1.60;;;12.70;1.00;;;;;;5076021;28;20394;-72
2023/11/20 02:17:28;;;;;;;15.40;2.10;;;12.80;1.00;;;;;;5091976;28;20452;-73
2023/11/20 02:19:58;;;;;;;23.57;2.50;;;12.70;1.00;;;;;;5087123;28;20424;-72
2023/11/20 02:22:24;;;;;;;10.80;1.83;;;12.70;1.00;;;;;;5076793;28;20183;-72
2023/11/20 02:24:50;;;;;;;14.37;2.63;;;12.80;1.00;;;;;;5074298;28;20771;-72
2023/11/20 02:27:19;;;;;;;16.30;2.03;;;;;;;;;;5075743;28;20182;-73
2023/11/20 02:29:53;;;;;;;16.13;1.70;;;12.80;1.00;;;;;;5075797;28;20406;-73
2023/11/20 02:32:20;;;;;;;13.37;1.50;;;12.80;1.00;;;;;;5075756;28;20432;-73
2023/11/20 02:34:46;;;;;;;6.37;1.53;;;12.80;1.00;;;;;;5075114;28;21070;-73
2023/11/20 02:37:21;;;;;;;7.93;1.87;;;12.80;1.00;;;;;;5083874;28;20491;-77
2023/11/20 02:40:06;;;;;;;7.00;1.17;;;12.80;1.00;;;;;;5076865;28;20479;-77
2023/11/20 02:43:03;;;;;;;5.17;1.20;;;12.80;1.00;;;;;;5062269;28;20421;-77
2023/11/20 02:49:09;;;;;;;17.83;1.63;;;12.70;1.00;;;;;;5060117;28;20428;-77
2023/11/20 02:51:36;;;;;;;7.57;1.63;;;12.60;1.00;;;;;;5076111;28;20439;-73
2023/11/20 02:54:02;;;;;;;11.37;1.70;;;12.60;1.00;;;;;;5076725;28;20437;-72
2023/11/20 02:56:33;;;;;;;8.93;1.90;;;12.50;1.00;;;;;;5077148;28;20468;-72
2023/11/20 02:59:01;;;;;;;15.20;1.40;;;;;;;;;;5074846;28;20485;-73
2023/11/20 03:01:29;;;;;;;11.80;1.33;;;12.40;1.00;;;;;;5075171;28;20901;-72
2023/11/20 03:03:55;;;;;;;10.93;1.93;;;12.30;1.00;;;;;;5085522;28;20440;-73
2023/11/20 03:06:20;;;;;;;21.43;2.40;;;12.20;1.00;;;;;;5092505;28;20400;-73
2023/11/20 03:08:46;;;;;;;19.60;2.30;;;12.20;1.00;;;;;;5069706;28;20920;-72
2023/11/20 03:11:12;;;;;;;18.43;2.70;;;;;;;;;;5059511;28;20599;-73
2023/11/20 03:13:39;;;;;;;15.40;1.70;;;12.10;1.00;;;;;;5082263;28;20191;-73
2023/11/20 03:16:09;;;;;;;11.33;1.93;;;12.10;1.00;;;;;;5074331;28;20433;-73
2023/11/20 03:18:37;;;;;;;14.80;1.83;;;12.10;1.00;;;;;;5086561;28;20919;-73
2023/11/20 03:21:04;;;;;;;17.17;2.30;;;12.10;1.00;;;;;;5075510;28;20411;-76
2023/11/20 03:23:30;;;;;;;10.97;1.57;;;;;;;;;;5074029;28;20787;-72
2023/11/20 03:25:56;;;;;;;14.57;2.87;;;12.10;1.00;;;;;;5073132;28;20436;-72
2023/11/20 03:28:21;;;;;;;17.90;2.00;;;12.20;1.00;;;;;;5063467;28;20426;-73
2023/11/20 03:30:57;;;;;;;14.07;2.47;;;12.10;1.00;;;;;;5072421;28;20313;-73
2023/11/20 03:33:27;;;;;;;13.53;2.20;;;12.10;1.00;;;;;;5090011;28;20178;-73
2023/11/20 03:35:53;;;;;;;12.77;1.70;;;12.10;1.00;;;;;;5073833;28;20922;-73
2023/11/20 03:38:19;;;;;;;7.83;1.70;;;12.10;1.00;;;;;;5075077;28;20417;-73
2023/11/20 03:40:45;;;;;;;12.70;2.27;;;12.10;1.00;;;;;;5087488;28;20174;-73
2023/11/20 03:43:11;;;;;;;7.00;1.40;;;12.10;1.00;;;;;;5077556;28;20187;-73
2023/11/20 03:45:38;;;;;;;12.50;1.93;;;;;;;;;;5077528;28;20433;-73
2023/11/20 03:48:04;;;;;;;15.50;1.40;;;12.10;1.00;;;;;;5073836;28;20281;-73
2023/11/20 03:50:33;;;;;;;4.23;1.50;;;12.00;1.00;;;;;;5072447;28;20574;-73
2023/11/20 03:56:21;;;;;;;9.97;1.40;;;12.10;1.00;;;;;;5075142;28;20503;-77
2023/11/20 04:02:08;;;;;;;9.17;1.40;;;12.20;1.00;;;;;;5055639;28;20190;-78
2023/11/20 04:04:39;;;;;;;7.27;1.50;;;12.20;1.00;;;;;;5083421;28;20859;-77
2023/11/20 04:07:05;;;;;;;5.60;1.30;;;12.30;1.00;;;;;;5074011;28;20190;-73
2023/11/20 04:09:31;;;;;;;13.83;1.97;;;12.30;1.00;;;;;;5073869;28;20741;-73
2023/11/20 04:11:57;;;;;;;8.10;1.50;;;;;;;;;;5075756;28;20539;-73
2023/11/20 04:14:23;;;;;;;5.30;1.10;;;12.20;1.00;;;;;;5087116;28;20577;-73
2023/11/20 04:16:51;;;;;;;8.97;1.40;;;12.30;1.00;;;;;;5073807;28;20443;-73
2023/11/20 04:19:17;;;;;;;16.80;2.77;;;12.20;1.00;;;;;;5073663;28;20183;-73
2023/11/20 04:25:57;;;;;;;9.27;1.87;;;12.30;1.00;;;;;;5064103;28;20601;-78
2023/11/20 04:31:45;;;;;;;8.60;1.60;;;12.20;1.00;;;;;;5070455;28;20778;-77
2023/11/20 04:34:27;;;;;;;14.13;1.90;;;12.10;1.00;;;;;;5072961;28;20421;-78
2023/11/20 04:36:53;;;;;;;21.83;2.57;;;12.10;1.00;;;;;;5078969;28;20661;-73
2023/11/20 04:39:19;;;;;;;8.93;1.40;;;12.10;1.00;;;;;;5069291;28;20409;-73
2023/11/20 04:41:51;;;;;;;12.50;1.83;;;12.10;1.00;;;;;;5073432;28;20194;-73
2023/11/20 04:44:17;;;;;;;4.60;1.20;;;;;;;;;;5083157;28;20175;-73
2023/11/20 04:46:43;;;;;;;3.83;1.00;;;12.10;1.00;;;;;;5080142;28;20394;-73
2023/11/20 04:49:09;;;;;;;7.57;1.57;;;;;;;;;;5074741;28;20435;-73
2023/11/20 04:51:35;;;;;;;6.20;1.53;;;;;;;;;;5089408;28;20265;-73
2023/11/20 04:57:23;;;;;;;10.23;1.43;;;12.00;1.00;;;;;;5061935;28;20531;-78
2023/11/20 05:03:10;;;;;;;9.57;1.77;;;11.90;1.00;;;;;;5088468;28;20698;-78
2023/11/20 05:05:52;;;;;;;9.40;1.40;;;;;;;;;;5081883;28;20511;-78
2023/11/20 05:08:21;;;;;;;4.63;1.13;;;11.90;1.00;;;;;;5073340;28;20641;-78
2023/11/20 05:10:58;;;;;;;6.70;1.30;;;11.90;1.00;;;;;;5087029;28;20480;-78
2023/11/20 05:14:03;;;;;;;19.30;1.47;;;11.90;1.00;;;;;;5071589;28;20510;-78
2023/11/20 05:16:29;;;;;;;14.87;1.57;;;12.00;1.00;;;;;;5088392;28;20492;-78
2023/11/20 05:18:56;;;;;;;6.13;1.30;;;;;;;;;;5069297;28;20477;-78
2023/11/20 05:28:33;;;;;;;102.37;10.30;;;12.10;1.00;;;;;;5056521;28;20479;-85
2023/11/20 05:31:27;;;;;;;6.80;1.53;;;12.10;1.00;;;;;;5079391;28;20519;-76
2023/11/20 05:34:21;;;;;;;10.77;1.50;;;12.00;1.00;;;;;;5073508;28;20433;-77
2023/11/20 05:40:57;;;;;;;4.73;1.03;;;12.00;1.00;;;;;;5076380;28;20970;-76
2023/11/20 05:43:27;;;;;;;3.57;1.03;;;11.90;1.00;;;;;;5075947;28;20417;-75
2023/11/20 05:45:58;;;;;;;7.13;1.20;;;11.90;1.00;;;;;;5088541;28;20417;-76
2023/11/20 05:48:27;;;;;;;7.53;1.30;;;11.90;1.00;;;;;;5071004;28;20500;-75
2023/11/20 05:51:04;;;;;;;7.70;1.20;;;11.90;1.00;;;;;;5097004;28;20926;-75
2023/11/20 05:53:51;;;;;;;4.43;1.37;;;11.80;1.00;;;;;;5079605;28;20431;-75
2023/11/20 05:56:40;;;;;;;5.97;1.30;;;11.80;1.00;;;;;;5074650;28;20479;-76
2023/11/20 05:59:15;;;;;;;3.70;0.80;;;11.70;1.00;;;;;;5056527;28;20415;-75
2023/11/20 06:02:27;;;;;;;5.67;1.53;;;11.60;1.00;;;;;;5073564;28;20432;-76
2023/11/20 06:15:00;;;;;;;3.80;0.90;;;;;;;;;;5074843;28;20496;-82
2023/11/20 06:17:34;;;;;;;5.40;1.20;;;11.70;1.00;;;;;;5074836;28;20894;-82
2023/11/20 06:23:27;;;;;;;7.50;1.10;;;11.70;1.00;;;;;;5074715;28;20777;-76
2023/11/20 06:26:15;;;;;;;8.43;1.10;;;11.60;1.00;;;;;;5087161;28;20912;-76
2023/11/20 06:29:09;;;;;;;4.20;1.00;;;;;;;;;;5075711;28;20784;-79
2023/11/20 06:31:45;;;;;;;2.73;0.90;;;11.60;1.00;;;;;;5078871;28;20412;-75
2023/11/20 06:40:56;;;;;;;7.03;1.07;;;11.60;1.00;;;;;;5055043;28;20412;-83
2023/11/20 06:43:28;;;;;;;1.90;0.77;;;;;;;;;;5067780;28;20495;-83
2023/11/20 06:46:04;;;;;;;2.67;1.10;;;;;;;;;;5068532;28;20425;-93
2023/11/20 06:49:15;;;;;;;4.77;0.80;;;11.50;1.00;;;;;;5072904;28;20417;-92
2023/11/20 06:51:52;;;;;;;3.07;0.80;;;;;;;;;;5073245;28;20465;-92
2023/11/20 06:54:22;;;;;;;2.57;0.70;;;;;;;;;;5070455;28;20443;-84
2023/11/20 06:57:21;;;;;;;17.40;1.63;;;;;;;;;;5066423;28;20544;-95
2023/11/20 07:03:58;;;;;;;1.37;0.60;;;11.40;1.00;;;;;;5054906;28;20447;-94
2023/11/20 07:10:25;;;;;;;10.13;0.97;;;11.30;1.00;;;;;;5070911;28;20470;-90
2023/11/20 07:12:58;;;;;;;3.97;0.83;;;;;;;;;;5035408;28;1198767;-85
2023/11/20 07:18:46;;;;;;;1.47;0.70;;;;;;;;;;5095658;28;20486;-90
2023/11/20 07:21:34;;;;;;;3.27;0.83;;;11.20;1.00;;;;;;5091417;28;20456;-90
2023/11/20 07:24:39;;;;;;;3.20;0.83;;;11.20;1.00;;;;;;5074681;28;20383;-90
2023/11/20 07:27:36;;;;;;;1.70;0.70;;;11.30;1.00;;;;;;5074285;28;20423;-88
2023/11/20 07:33:25;;;;;;;5.40;1.20;;;;;;;;;;5075137;28;20412;-90
2023/11/20 07:36:18;;;;;;;2.97;0.63;;;11.30;1.00;;;;;;5073777;28;20408;-90
2023/11/20 07:39:03;;;;;;;4.10;0.70;;;11.30;1.00;;;;;;5091419;28;20425;-90
2023/11/20 07:41:29;;;;;;;4.40;0.97;;;11.40;1.00;;;;;;5073039;28;20399;-81
2023/11/20 07:44:09;;;;;;;3.40;0.90;;;11.40;1.00;;;;;;5069661;28;20784;-81
2023/11/20 07:46:52;;;;;;;1.93;0.77;;;11.50;1.00;;;;;;5076403;28;20524;-74
2023/11/20 07:49:22;;;;;;;9.00;1.70;;;11.50;1.00;;;;;;5077604;28;20478;-74
2023/11/20 07:52:15;;;;;;;13.70;2.10;;;11.50;1.00;;;;;;5076264;28;20884;-75
2023/11/20 07:58:04;;;;;;;2.63;0.80;;;11.60;1.00;;;;;;5071253;28;20464;-80
2023/11/20 08:00:57;;;;;;;1.90;1.00;;;11.60;1.00;;;;;;5068960;28;20429;-79
2023/11/20 08:06:46;;;;;;;3.47;0.80;;;11.70;1.00;;;;;;5053755;28;20903;-80
2023/11/20 08:09:51;;;;;;;2.80;0.70;;;11.80;1.00;;;;;;5072737;28;20413;-80
2023/11/20 08:19:03;;;;;;;5.10;1.00;;;11.80;1.00;;;;;;5080714;28;20562;-80
2023/11/20 08:21:32;;;;;;;1.57;0.67;;;11.80;1.00;;;;;;5082502;28;20418;-80
2023/11/20 08:24:16;;;;;;;9.27;0.90;;;;;;;;;;5073794;28;20417;-79
2023/11/20 08:30:34;;;;;;;5.60;1.33;;;11.90;1.00;;;;;;5079888;28;20400;-80
2023/11/20 08:39:43;;;;;;;4.40;0.90;;;11.80;1.00;;;;;;5080266;28;20417;-78
2023/11/20 08:42:10;;;;;;;2.53;0.97;;;;;;;;;;5085375;28;20478;-75
2023/11/20 08:44:40;;;;;;;7.47;0.97;;;;;;;;;;5061852;28;20493;-74
2023/11/20 08:47:11;;;;;;;1.70;0.90;;;12.00;1.00;;;;;;5062487;28;20422;-74
2023/11/20 08:49:37;;;;;;;8.53;1.27;;;12.00;1.00;;;;;;5091167;28;20447;-74
2023/11/20 08:52:04;;;;;;;2.63;0.80;;;12.20;1.00;;;;;;5077815;28;20397;-73
2023/11/20 08:55:06;;;;;;;2.50;0.53;;;12.40;1.00;;;;;;5080890;28;20436;-76
2023/11/20 08:57:46;;;;;;;7.77;0.90;;;12.60;1.00;;;;;;5070549;28;21054;-75
2023/11/20 09:00:16;;;;;;;4.97;0.90;;;12.70;1.00;;;;;;5097882;28;20392;-74
2023/11/20 09:02:43;;;;;;;7.40;1.00;;;;;;;;;;5089269;28;20446;-74
2023/11/20 09:05:22;;;;;;;4.40;1.20;;;12.80;1.00;;;;;;5077297;28;20368;-74
2023/11/20 09:07:47;;;;;;;4.00;1.03;;;12.70;1.00;;;;;;5083809;28;20407;-74
2023/11/20 09:17:36;;;;;;;4.60;0.87;;;12.60;1.00;;;;;;5068582;28;20468;-80
2023/11/20 09:20:04;;;;;;;7.73;1.47;;;12.60;1.00;;;;;;5075944;28;20506;-79
2023/11/20 09:25:52;;;;;;;4.87;0.80;;;;;;;;;;5069526;28;20403;-73
2023/11/20 09:28:23;;;;;;;4.90;1.00;;;12.60;1.00;;;;;;5090658;28;20379;-73
2023/11/20 09:30:49;;;;;;;3.70;0.90;;;12.60;1.00;;;;;;5076471;28;20404;-74
2023/11/20 09:33:14;;;;;;;3.07;0.97;;;12.60;1.00;;;;;;5076687;28;20420;-73
2023/11/20 09:35:46;;;;;;;1.23;0.80;;;12.70;1.00;;;;;;5076461;28;20903;-73
2023/11/20 09:38:28;;;;;;;5.00;1.50;;;12.80;1.00;;;;;;5067728;28;20209;-73
2023/11/20 09:40:55;;;;;;;3.43;1.00;;;12.80;1.00;;;;;;5076469;28;20489;-79
2023/11/20 09:43:31;;;;;;;3.50;1.00;;;12.80;1.00;;;;;;5067375;28;20443;-79
2023/11/20 09:46:06;;;;;;;6.00;1.10;;;12.80;1.00;;;;;;5073113;28;21895;-80
2023/11/20 09:48:52;;;;;;;1.07;0.60;;;12.80;1.00;;;;;;5067652;28;20447;-79
2023/11/20 09:54:41;;;;;;;5.30;1.00;;;12.70;1.00;;;;;;5080712;28;20422;-79
2023/11/20 09:57:11;;;;;;;2.00;0.83;;;12.70;1.00;;;;;;5075586;28;20922;-73
2023/11/20 09:59:41;;;;;;;2.60;1.10;;;12.50;1.00;;;;;;5076051;28;20401;-73
2023/11/20 10:02:27;;;;;;;10.13;1.63;;;12.50;1.00;;;;;;5073211;28;20432;-73
2023/11/20 10:04:59;;;;;;;2.90;0.80;;;12.50;1.00;;;;;;5069343;28;20394;-73
2023/11/20 10:07:31;;;;;;;2.97;0.90;;;12.40;1.00;;;;;;5070874;28;20429;-74
2023/11/20 10:10:05;;;;;;;3.07;0.83;;;12.50;1.00;;;;;;5083368;28;20405;-77
2023/11/20 10:12:35;;;;;;;5.80;0.73;;;12.60;1.00;;;;;;5075184;28;20443;-74
2023/11/20 10:15:01;;;;;;;4.03;0.90;;;12.70;1.00;;;;;;5091720;28;20399;-73
2023/11/20 10:17:28;;;;;;;7.00;1.40;;;12.80;1.00;;;;;;5086060;28;20962;-73
2023/11/20 10:19:54;;;;;;;2.80;0.87;;;12.80;1.00;;;;;;5089592;28;20434;-73
2023/11/20 10:22:26;;;;;;;3.73;1.07;;;12.70;1.00;;;;;;5081314;28;20411;-73
2023/11/20 10:24:52;;;;;;;10.87;1.00;;;12.80;1.00;;;;;;5078558;28;20630;-73
2023/11/20 10:34:09;;;;;;;0.70;0.70;;;12.90;1.00;;;;;;5075705;28;20380;-80
2023/11/20 10:37:29;;;;;;;6.67;1.00;;;13.20;1.00;;;;;;5082400;28;20513;-80
2023/11/20 10:40:35;;;;;;;2.47;0.90;;;13.30;1.00;;;;;;5075520;28;20449;-80
2023/11/20 10:43:01;;;;;;;11.63;1.57;;;;;;;;;;5073580;28;20410;-73
2023/11/20 10:45:27;;;;;;;6.97;1.23;;;13.60;1.00;;;;;;5058691;28;20483;-73
2023/11/20 10:47:53;;;;;;;1.87;0.83;;;13.50;1.00;;;;;;5086303;28;20445;-73
2023/11/20 10:50:21;;;;;;;3.90;1.33;;;;;;;;;;5075448;28;20419;-73
2023/11/20 10:52:49;;;;;;;2.80;1.00;;;13.40;1.00;;;;;;5082138;28;20228;-73
2023/11/20 10:55:24;;;;;;;6.40;1.20;;;13.20;1.00;;;;;;5081651;28;20483;-73
2023/11/20 11:01:23;;;;;;;3.40;1.03;;;12.90;1.00;;;;;;5072631;28;20901;-80
2023/11/20 11:07:40;;;;;;;2.00;0.70;;;12.60;1.00;;;;;;5089705;28;20969;-80
2023/11/20 11:10:57;;;;;;;6.10;0.73;;;12.60;1.00;;;;;;5090328;28;20418;-80
2023/11/20 11:14:03;;;;;;;1.83;0.80;;;12.60;1.00;;;;;;5074558;28;20417;-80
2023/11/20 11:20:12;;;;;;;1.27;0.70;;;12.60;1.00;;;;;;5091056;28;20838;-80
2023/11/20 11:26:21;;;;;;;3.90;1.23;;;12.70;1.00;;;;;;5078947;28;20423;-74
2023/11/20 11:28:54;;;;;;;4.53;1.10;;;12.80;1.00;;;;;;5072544;28;20871;-73
2023/11/20 11:31:21;;;;;;;4.10;1.10;;;;;;;;;;5073028;28;20552;-74
2023/11/20 11:34:05;;;;;;;7.83;1.27;;;13.00;1.00;;;;;;5072654;28;21224;-73
2023/11/20 11:36:45;;;;;;;3.60;0.70;;;13.10;1.00;;;;;;5064223;28;20463;-74
2023/11/20 11:39:24;;;;;;;16.33;6.37;;;13.20;1.00;;;;;;5087583;28;20428;-73
2023/11/20 11:41:58;;;;;;;6.10;0.93;;;13.10;1.00;;;;;;5083544;28;20452;-74
2023/11/20 11:44:38;;;;;;;13.47;2.10;;;13.10;1.00;;;;;;5073428;28;20432;-73
2023/11/20 11:47:14;;;;;;;3.30;0.80;;;13.20;1.00;;;;;;5067219;28;21029;-72
2023/11/20 11:49:50;;;;;;;713.37;313.00;;;13.40;1.00;;;;;;5077752;28;20744;-73
2023/11/20 11:52:28;;;;;;;5.50;1.03;;;13.40;1.00;;;;;;5076822;28;20499;-73
2023/11/20 11:55:12;;;;;;;11.27;1.83;;;13.50;1.00;;;;;;5079331;28;21316;-73
2023/11/20 11:57:57;;;;;;;7.57;1.50;;;;;;;;;;5073260;28;20510;-73
2023/11/20 12:00:34;;;;;;;2.60;0.87;;;13.70;1.00;;;;;;5087815;28;20410;-73
2023/11/20 12:03:01;;;;;;;4.63;0.80;;;13.50;1.00;;;;;;5065247;28;20911;-74
2023/11/20 12:05:29;;;;;;;9.10;1.53;;;13.50;1.00;;;;;;5087063;28;20479;-74
2023/11/20 12:07:55;;;;;;;14.97;2.07;;;;;;;;;;5071236;28;20407;-73
2023/11/20 12:10:49;;;;;;;1.97;0.70;;;13.50;1.00;;;;;;5087551;28;20896;-73
2023/11/20 12:13:16;;;;;;;8.23;1.13;;;;;;;;;;5073988;28;20413;-73
2023/11/20 12:15:47;;;;;;;7.50;1.30;;;13.60;1.00;;;;;;5073344;28;20471;-73
2023/11/20 12:18:32;;;;;;;3.43;0.83;;;13.60;1.00;;;;;;5076777;28;20419;-73
2023/11/20 12:21:04;;;;;;;25.33;3.33;;;13.70;1.00;;;;;;5071142;28;20491;-73
2023/11/20 12:23:43;;;;;;;14.30;1.80;;;13.70;1.00;;;;;;5073480;28;20387;-73
2023/11/20 12:26:13;;;;;;;1.60;0.60;;;13.80;1.00;;;;;;5085399;28;20509;-73
2023/11/20 12:29:10;;;;;;;2.17;0.93;;;13.80;1.00;;;;;;5082433;28;20953;-80
2023/11/20 12:34:58;;;;;;;2.77;1.00;;;13.40;1.00;;;;;;5080591;28;20418;-79
2023/11/20 12:37:34;;;;;;;2.57;0.80;;;13.50;1.00;;;;;;5092559;28;20455;-79
2023/11/20 12:40:34;;;;;;;6.33;1.47;;;13.50;1.00;;;;;;5074472;28;20516;-79
2023/11/20 12:43:00;;;;;;;9.10;2.00;;;13.70;1.00;;;;;;5072887;28;20396;-73
2023/11/20 12:45:26;;;;;;;10.67;6.00;;;13.80;1.00;;;;;;5070056;28;20437;-73
2023/11/20 12:47:53;;;;;;;3.93;0.77;;;13.90;1.00;;;;;;5069986;28;20444;-74
2023/11/20 12:50:21;;;;;;;5.80;1.03;;;14.10;1.00;;;;;;5072180;28;20437;-71
2023/11/20 12:56:09;;;;;;;1.83;0.70;;;14.20;1.00;;;;;;5056691;28;20416;-80
2023/11/20 12:58:57;;;;;;;5.60;0.97;;;14.10;1.00;;;;;;5070709;28;20522;-80
2023/11/20 13:04:52;;;;;;;621.70;246.20;;;13.90;1.00;;;;;;5082115;28;20455;-81
2023/11/20 13:11:04;;;;;;;9.17;0.77;;;13.90;1.00;;;;;;5064866;28;20422;-80
2023/11/20 13:16:59;;;;;;;2.70;0.60;;;13.80;1.00;;;;;;5062707;28;20506;-76
2023/11/20 13:19:54;;;;;;;0.80;0.50;;;13.80;1.00;;;;;;5086271;28;20444;-76
2023/11/20 13:22:46;;;;;;;0.93;0.50;;;13.80;1.00;;;;;;5030317;28;20421;-75
2023/11/20 13:25:25;;;;;;;1.70;0.53;;;;;;;;;;5036971;28;20401;-90
2023/11/20 13:28:09;;;;;;;18.80;2.20;;;13.90;1.00;;;;;;5016617;28;20882;-88
2023/11/20 13:31:05;;;;;;;1.13;0.60;;;14.00;1.00;;;;;;5016245;28;20805;-88
2023/11/20 13:33:46;;;;;;;0.40;0.30;;;14.00;1.00;;;;;;5015944;28;20382;-88
2023/11/20 13:49:52;;;;;;;6.50;1.00;;;;;;;;;;5034337;28;20380;-89
2023/11/20 13:55:22;;;;;;;1.03;0.77;;;;;;;;;;5027504;28;20402;-91
2023/11/20 13:57:48;;;;;;;3.00;0.93;;;;;;;;;;5020923;28;20451;-91
2023/11/20 14:03:57;;;;;;;5.10;1.00;;;;;;;;;;5078011;28;20455;-91
2023/11/20 14:06:40;;;;;;;4.53;0.80;;;;;;;;;;5071980;28;20417;-90
2023/11/20 14:09:27;;;;;;;400.43;155.50;;;13.20;1.00;;;;;;5086705;28;20516;-86
2023/11/20 14:12:11;;;;;;;552.27;203.13;;;13.20;1.00;;;;;;5074839;28;20432;-79
2023/11/20 14:14:38;;;;;;;4.30;0.63;;;13.20;1.00;;;;;;5064740;28;20447;-78
2023/11/20 14:17:57;;;;;;;2.93;0.50;;;13.30;1.00;;;;;;5062088;28;20434;-79
2023/11/20 14:20:26;;;;;;;6.20;0.90;;;13.10;1.00;;;;;;5082324;28;20769;-77
2023/11/20 14:22:58;;;;;;;1.23;0.50;;;13.00;1.00;;;;;;5076990;28;20419;-78
2023/11/20 14:25:24;;;;;;;25.33;3.50;;;;;;;;;;5076470;28;20432;-78
2023/11/20 14:28:22;;;;;;;1.30;0.67;;;12.80;1.00;;;;;;5071478;28;20413;-77
2023/11/20 14:31:04;;;;;;;6.00;1.10;;;12.80;1.00;;;;;;5084250;28;20464;-76
2023/11/20 14:33:57;;;;;;;8.53;1.50;;;12.90;1.00;;;;;;5080528;28;20812;-76
2023/11/20 14:36:23;;;;;;;3.37;0.80;;;12.90;1.00;;;;;;5075796;28;20512;-76
2023/11/20 14:38:51;;;;;;;2.43;0.63;;;;;;;;;;5055314;28;20486;-76
2023/11/20 14:41:17;;;;;;;3.03;0.90;;;12.80;1.00;;;;;;5089091;28;20179;-77
2023/11/20 14:43:52;;;;;;;14.47;1.87;;;12.80;1.00;;;;;;5086331;28;20505;-78
2023/11/20 14:53:01;;;;;;;3.83;0.60;;;12.50;1.00;;;;;;5055149;28;20381;-78
2023/11/20 14:55:35;;;;;;;2.30;0.70;;;12.40;1.00;;;;;;5069099;28;20452;-78
2023/11/20 14:58:16;;;;;;;5.60;0.90;;;12.40;1.00;;;;;;5072508;28;20664;-78
2023/11/20 15:04:03;;;;;;;714.87;212.10;;;12.20;1.00;;;;;;5074334;28;20452;-78
2023/11/20 15:06:29;;;;;;;1.53;0.70;;;;;;;;;;5070592;28;20448;-77
2023/11/20 15:08:58;;;;;;;4.73;0.87;;;12.10;1.00;;;;;;5081392;28;20878;-78
2023/11/20 15:11:45;;;;;;;6.30;1.20;;;12.10;1.00;;;;;;5072582;28;20414;-77
2023/11/20 15:14:17;;;;;;;3.83;0.73;;;12.00;1.00;;;;;;5074354;28;20428;-79
2023/11/20 15:27:40;;;;;;;4.20;0.70;;;11.90;1.00;;;;;;5067757;28;20410;-75
2023/11/20 15:30:14;;;;;;;3.07;0.80;;;11.80;1.00;;;;;;5072564;28;20511;-73
2023/11/20 15:32:47;;;;;;;4.07;1.03;;;11.90;1.00;;;;;;5080290;28;20403;-72
2023/11/20 15:35:14;;;;;;;4.20;0.77;;;11.90;1.00;;;;;;5074607;28;21011;-72
2023/11/20 15:37:40;;;;;;;5.73;1.10;;;11.90;1.00;;;;;;5073107;28;20833;-72
2023/11/20 15:40:08;;;;;;;5.70;1.30;;;11.90;1.00;;;;;;5076553;28;20411;-72
2023/11/20 15:42:36;;;;;;;28.17;3.30;;;11.90;1.00;;;;;;5067126;28;20425;-72
2023/11/20 15:45:04;;;;;;;2.50;0.60;;;11.90;1.00;;;;;;5068837;28;20421;-73
2023/11/20 15:47:34;;;;;;;9.17;1.20;;;12.00;1.00;;;;;;5089117;28;20520;-73
2023/11/20 15:50:06;;;;;;;11.37;1.80;;;11.90;1.00;;;;;;5074559;28;20448;-73
2023/11/20 15:52:32;;;;;;;7.87;4.13;;;11.90;1.00;;;;;;5072926;28;20437;-73
2023/11/20 15:54:59;;;;;;;1.83;0.67;;;11.90;1.00;;;;;;5074251;28;20496;-73
2023/11/20 15:57:27;;;;;;;7.70;1.20;;;11.90;1.00;;;;;;5072916;28;20589;-73
2023/11/20 16:00:05;;;;;;;1.07;0.50;;;11.90;1.00;;;;;;5085917;28;20765;-76
2023/11/20 16:02:34;;;;;;;10.50;1.63;;;11.90;1.00;;;;;;5051072;28;20486;-77
2023/11/20 16:05:10;;;;;;;1.47;0.67;;;11.90;1.00;;;;;;5073835;28;20479;-78
2023/11/20 16:07:58;;;;;;;3.27;0.60;;;11.80;1.00;;;;;;5075304;28;20431;-78
2023/11/20 16:10:52;;;;;;;2.97;0.70;;;11.80;1.00;;;;;;5082641;28;20440;-79
2023/11/20 16:13:22;;;;;;;0.93;0.40;;;11.80;1.00;;;;;;5075248;28;20460;-75
2023/11/20 16:16:00;;;;;;;4.20;0.60;;;11.70;1.00;;;;;;5084351;28;20395;-74
2023/11/20 16:18:28;;;;;;;17.83;1.10;;;;;;;;;;5081650;28;20509;-73
2023/11/20 16:20:54;;;;;;;4.67;0.93;;;;;;;;;;5087869;28;20732;-74
2023/11/20 16:23:22;;;;;;;1.90;0.60;;;11.60;1.00;;;;;;5078686;28;20876;-74
2023/11/20 16:25:48;;;;;;;2.20;0.60;;;11.60;1.00;;;;;;5081519;28;20436;-74
2023/11/20 16:28:14;;;;;;;5.77;1.00;;;;;;;;;;5078375;28;20501;-74
2023/11/20 16:30:40;;;;;;;5.40;0.83;;;11.40;1.00;;;;;;5084806;28;20933;-74
2023/11/20 16:33:39;;;;;;;1.27;0.60;;;11.50;1.00;;;;;;5079530;28;20475;-74
2023/11/20 16:36:06;;;;;;;2.73;0.70;;;11.60;1.00;;;;;;5084881;28;20516;-72
2023/11/20 16:38:31;;;;;;;4.93;0.80;;;11.40;1.00;;;;;;5075380;28;20540;-72
2023/11/20 16:40:57;;;;;;;7.17;1.37;;;;;;;;;;5068134;28;20517;-72
2023/11/20 16:43:28;;;;;;;7.20;1.27;;;11.30;1.00;;;;;;5078278;28;20231;-72
2023/11/20 16:46:40;;;;;;;7.77;0.80;;;11.30;1.00;;;;;;5083505;28;20442;-80
2023/11/20 16:49:16;;;;;;;0.70;0.60;;;11.20;1.00;;;;;;5064927;28;20838;-80
2023/11/20 16:55:04;;;;;;;7.40;0.80;;;11.20;1.00;;;;;;5061604;28;20428;-78
2023/11/20 16:58:15;;;;;;;6.07;0.83;;;11.20;1.00;;;;;;5055128;28;20450;-79
2023/11/20 17:00:45;;;;;;;1.83;0.70;;;11.20;1.00;;;;;;5080808;28;20409;-74
2023/11/20 17:03:11;;;;;;;12.43;1.80;;;;;;;;;;5065770;28;20968;-74
2023/11/20 17:05:58;;;;;;;5.60;0.80;;;11.20;1.00;;;;;;5070773;28;20413;-75
2023/11/20 17:09:10;;;;;;;20.60;2.70;;;11.20;1.00;;;;;;5052305;28;20460;-74